createdAt,value
2022-11-30T00:00:26.468Z,760.00
2022-11-30T00:00:56.527Z,762.00
2022-11-30T00:01:26.577Z,761.00
2022-11-30T00:01:56.729Z,763.00
2022-11-30T00:02:26.772Z,763.00
2022-11-30T00:02:56.823Z,764.00
2022-11-30T00:03:26.945Z,764.00
2022-11-30T00:03:56.810Z,764.00
2022-11-30T00:04:26.863Z,764.00
2022-11-30T00:04:56.901Z,765.00
2022-11-30T00:05:26.941Z,766.00
2022-11-30T00:05:56.988Z,763.00
2022-11-30T00:06:27.004Z,764.00
2022-11-30T00:06:57.038Z,765.00
2022-11-30T00:07:27.103Z,764.00
2022-11-30T00:07:57.163Z,763.00
2022-11-30T00:08:27.201Z,763.00
2022-11-30T00:08:57.243Z,764.00
2022-11-30T00:09:27.321Z,764.00
2022-11-30T00:09:57.363Z,762.00
2022-11-30T00:10:27.387Z,761.00
2022-11-30T00:10:57.467Z,759.00
2022-11-30T00:11:27.517Z,758.00
2022-11-30T00:11:57.560Z,757.00
2022-11-30T00:12:27.606Z,757.00
2022-11-30T00:12:57.654Z,756.00
2022-11-30T00:13:27.718Z,757.00
2022-11-30T00:13:57.764Z,758.00
2022-11-30T00:14:27.869Z,758.00
2022-11-30T00:14:57.924Z,761.00
2022-11-30T00:15:28.015Z,759.00
2022-11-30T00:15:58.034Z,760.00
2022-11-30T00:16:28.120Z,757.00
2022-11-30T00:16:58.240Z,755.00
2022-11-30T00:17:28.174Z,754.00
2022-11-30T00:17:58.209Z,753.00
2022-11-30T00:18:28.246Z,755.00
2022-11-30T00:18:58.280Z,755.00
2022-11-30T00:19:28.352Z,753.00
2022-11-30T00:19:58.390Z,752.00
2022-11-30T00:20:28.422Z,753.00
2022-11-30T00:20:58.456Z,756.00
2022-11-30T00:21:28.514Z,754.00
2022-11-30T00:21:58.529Z,755.00
2022-11-30T00:22:28.560Z,757.00
2022-11-30T00:22:58.607Z,757.00
2022-11-30T00:23:28.764Z,760.00
2022-11-30T00:23:58.671Z,760.00
2022-11-30T00:24:28.702Z,761.00
2022-11-30T00:24:58.739Z,762.00
2022-11-30T00:25:28.771Z,762.00
2022-11-30T00:25:58.811Z,760.00
2022-11-30T00:26:28.847Z,758.00
2022-11-30T00:26:58.890Z,758.00
2022-11-30T00:27:28.922Z,757.00
2022-11-30T00:27:58.982Z,759.00
2022-11-30T00:28:29.083Z,759.00
2022-11-30T00:28:59.175Z,760.00
2022-11-30T00:29:29.221Z,760.00
2022-11-30T00:29:59.270Z,758.00
2022-11-30T00:30:29.375Z,757.00
2022-11-30T00:30:59.576Z,754.00
2022-11-30T00:31:29.516Z,752.00
2022-11-30T00:31:59.569Z,751.00
2022-11-30T00:32:29.623Z,750.00
2022-11-30T00:32:59.679Z,751.00
2022-11-30T00:33:29.750Z,752.00
2022-11-30T00:33:59.823Z,752.00
2022-11-30T00:34:29.858Z,753.00
2022-11-30T00:34:59.893Z,754.00
2022-11-30T00:35:29.949Z,755.00
2022-11-30T00:36:00.046Z,753.00
2022-11-30T00:36:30.117Z,752.00
2022-11-30T00:37:00.198Z,754.00
2022-11-30T00:37:30.219Z,755.00
2022-11-30T00:38:00.299Z,755.00
2022-11-30T00:38:30.437Z,756.00
2022-11-30T00:39:00.501Z,756.00
2022-11-30T00:39:35.327Z,757.00
2022-11-30T00:40:00.581Z,757.00
2022-11-30T00:40:30.653Z,755.00
2022-11-30T00:41:00.736Z,755.00
2022-11-30T00:41:30.837Z,755.00
2022-11-30T00:42:00.866Z,756.00
2022-11-30T00:42:30.933Z,756.00
2022-11-30T00:43:01.007Z,759.00
2022-11-30T00:43:31.081Z,759.00
2022-11-30T00:44:01.156Z,759.00
2022-11-30T00:44:31.229Z,759.00
2022-11-30T00:45:01.276Z,761.00
2022-11-30T00:45:31.343Z,761.00
2022-11-30T00:46:01.460Z,760.00
2022-11-30T00:46:31.520Z,761.00
2022-11-30T00:47:01.566Z,760.00
2022-11-30T00:47:31.588Z,761.00
2022-11-30T00:48:01.602Z,760.00
2022-11-30T00:48:31.661Z,760.00
2022-11-30T00:49:01.684Z,758.00
2022-11-30T00:49:31.676Z,756.00
2022-11-30T00:50:01.821Z,755.00
2022-11-30T00:50:31.823Z,754.00
2022-11-30T00:51:01.834Z,753.00
2022-11-30T00:51:31.891Z,753.00
2022-11-30T00:52:01.900Z,752.00
2022-11-30T00:52:31.897Z,751.00
2022-11-30T00:53:02.013Z,752.00
2022-11-30T00:53:32.020Z,751.00
2022-11-30T00:54:02.017Z,751.00
2022-11-30T00:54:32.136Z,751.00
2022-11-30T00:55:04.209Z,751.00
2022-11-30T00:55:32.231Z,752.00
2022-11-30T00:56:02.354Z,750.00
2022-11-30T00:56:32.359Z,750.00
2022-11-30T00:57:02.394Z,748.00
2022-11-30T00:57:32.425Z,747.00
2022-11-30T00:58:02.480Z,746.00
2022-11-30T00:58:32.517Z,747.00
2022-11-30T00:59:02.548Z,747.00
2022-11-30T00:59:32.585Z,746.00
2022-11-30T01:00:02.624Z,745.00
2022-11-30T01:00:32.654Z,745.00
2022-11-30T01:01:02.791Z,745.00
2022-11-30T01:01:32.798Z,745.00
2022-11-30T01:02:02.897Z,743.00
2022-11-30T01:02:32.943Z,742.00
2022-11-30T01:03:03.000Z,744.00
2022-11-30T01:03:33.000Z,743.00
2022-11-30T01:04:03.038Z,743.00
2022-11-30T01:04:33.079Z,741.00
2022-11-30T01:05:03.110Z,740.00
2022-11-30T01:05:33.144Z,742.00
2022-11-30T01:06:03.183Z,740.00
2022-11-30T01:06:33.215Z,742.00
2022-11-30T01:07:03.251Z,742.00
2022-11-30T01:07:33.342Z,741.00
2022-11-30T01:08:03.361Z,740.00
2022-11-30T01:08:33.397Z,737.00
2022-11-30T01:09:03.438Z,738.00
2022-11-30T01:09:33.466Z,736.00
2022-11-30T01:10:03.499Z,736.00
2022-11-30T01:10:33.536Z,737.00
2022-11-30T01:11:03.569Z,736.00
2022-11-30T01:11:33.598Z,737.00
2022-11-30T01:12:03.637Z,739.00
2022-11-30T01:12:33.661Z,738.00
2022-11-30T01:13:03.745Z,738.00
2022-11-30T01:13:33.781Z,739.00
2022-11-30T01:14:03.810Z,740.00
2022-11-30T01:14:33.841Z,740.00
2022-11-30T01:15:03.879Z,740.00
2022-11-30T01:15:33.930Z,740.00
2022-11-30T01:16:04.033Z,740.00
2022-11-30T01:16:34.052Z,739.00
2022-11-30T01:17:04.067Z,739.00
2022-11-30T01:17:34.108Z,740.00
2022-11-30T01:18:04.163Z,741.00
2022-11-30T01:18:34.192Z,739.00
2022-11-30T01:19:04.260Z,739.00
2022-11-30T01:19:34.265Z,739.00
2022-11-30T01:20:04.292Z,738.00
2022-11-30T01:20:34.339Z,738.00
2022-11-30T01:21:04.376Z,737.00
2022-11-30T01:21:34.408Z,736.00
2022-11-30T01:22:04.448Z,735.00
2022-11-30T01:22:34.477Z,735.00
2022-11-30T01:23:04.561Z,734.00
2022-11-30T01:23:34.571Z,735.00
2022-11-30T01:24:04.608Z,735.00
2022-11-30T01:24:34.647Z,735.00
2022-11-30T01:25:04.701Z,734.00
2022-11-30T01:25:34.735Z,732.00
2022-11-30T01:26:04.766Z,733.00
2022-11-30T01:26:34.799Z,732.00
2022-11-30T01:27:04.834Z,733.00
2022-11-30T01:27:34.865Z,733.00
2022-11-30T01:28:04.905Z,733.00
2022-11-30T01:28:34.939Z,731.00
2022-11-30T01:29:04.971Z,730.00
2022-11-30T01:29:35.006Z,730.00
2022-11-30T01:30:05.059Z,730.00
2022-11-30T01:30:35.142Z,727.00
2022-11-30T01:31:05.242Z,730.00
2022-11-30T01:31:35.197Z,730.00
2022-11-30T01:32:05.235Z,729.00
2022-11-30T01:32:35.259Z,729.00
2022-11-30T01:33:05.297Z,732.00
2022-11-30T01:33:35.326Z,732.00
2022-11-30T01:34:05.366Z,732.00
2022-11-30T01:34:35.394Z,731.00
2022-11-30T01:35:05.463Z,731.00
2022-11-30T01:35:35.492Z,731.00
2022-11-30T01:36:05.536Z,730.00
2022-11-30T01:36:35.564Z,733.00
2022-11-30T01:37:05.601Z,732.00
2022-11-30T01:37:35.636Z,732.00
2022-11-30T01:38:05.677Z,731.00
2022-11-30T01:38:35.736Z,733.00
2022-11-30T01:39:05.771Z,735.00
2022-11-30T01:39:35.808Z,732.00
2022-11-30T01:40:05.841Z,732.00
2022-11-30T01:40:35.876Z,732.00
2022-11-30T01:41:05.927Z,732.00
2022-11-30T01:41:35.947Z,732.00
2022-11-30T01:42:05.975Z,731.00
2022-11-30T01:42:36.004Z,730.00
2022-11-30T01:43:06.071Z,731.00
2022-11-30T01:43:36.104Z,730.00
2022-11-30T01:44:06.145Z,732.00
2022-11-30T01:44:36.173Z,733.00
2022-11-30T01:45:06.228Z,732.00
2022-11-30T01:45:36.256Z,732.00
2022-11-30T01:46:06.322Z,733.00
2022-11-30T01:46:36.437Z,734.00
2022-11-30T01:47:06.443Z,734.00
2022-11-30T01:47:36.440Z,732.00
2022-11-30T01:48:06.438Z,732.00
2022-11-30T01:48:36.554Z,732.00
2022-11-30T01:49:06.670Z,731.00
2022-11-30T01:49:36.679Z,732.00
2022-11-30T01:50:06.706Z,731.00
2022-11-30T01:50:36.695Z,731.00
2022-11-30T01:51:06.697Z,731.00
2022-11-30T01:51:36.696Z,730.00
2022-11-30T01:52:06.807Z,729.00
2022-11-30T01:52:36.804Z,729.00
2022-11-30T01:53:06.927Z,730.00
2022-11-30T01:53:37.046Z,729.00
2022-11-30T01:54:07.069Z,729.00
2022-11-30T01:54:37.052Z,730.00
2022-11-30T01:55:07.207Z,731.00
2022-11-30T01:55:37.199Z,732.00
2022-11-30T01:56:07.200Z,730.00
2022-11-30T01:56:37.214Z,728.00
2022-11-30T01:57:07.249Z,727.00
2022-11-30T01:57:37.280Z,726.00
2022-11-30T01:58:07.310Z,727.00
2022-11-30T01:58:37.355Z,727.00
2022-11-30T01:59:07.389Z,726.00
2022-11-30T01:59:37.414Z,727.00
2022-11-30T02:00:07.451Z,727.00
2022-11-30T02:00:37.495Z,726.00
2022-11-30T02:01:07.596Z,727.00
2022-11-30T02:01:37.675Z,723.00
2022-11-30T02:02:07.742Z,723.00
2022-11-30T02:02:37.812Z,723.00
2022-11-30T02:03:07.906Z,722.00
2022-11-30T02:03:37.925Z,722.00
2022-11-30T02:04:07.955Z,722.00
2022-11-30T02:04:38.000Z,722.00
2022-11-30T02:05:08.044Z,721.00
2022-11-30T02:05:38.069Z,722.00
2022-11-30T02:06:08.103Z,724.00
2022-11-30T02:06:38.153Z,724.00
2022-11-30T02:07:08.260Z,725.00
2022-11-30T02:07:38.399Z,723.00
2022-11-30T02:08:08.478Z,722.00
2022-11-30T02:08:38.503Z,722.00
2022-11-30T02:09:08.440Z,721.00
2022-11-30T02:09:38.500Z,722.00
2022-11-30T02:10:08.523Z,721.00
2022-11-30T02:10:38.554Z,720.00
2022-11-30T02:11:08.584Z,720.00
2022-11-30T02:11:38.615Z,719.00
2022-11-30T02:12:08.646Z,719.00
2022-11-30T02:12:38.673Z,718.00
2022-11-30T02:13:08.702Z,717.00
2022-11-30T02:13:38.735Z,717.00
2022-11-30T02:14:08.769Z,714.00
2022-11-30T02:14:38.799Z,715.00
2022-11-30T02:15:08.923Z,714.00
2022-11-30T02:15:38.906Z,713.00
2022-11-30T02:16:09.008Z,713.00
2022-11-30T02:16:38.962Z,713.00
2022-11-30T02:17:09.008Z,713.00
2022-11-30T02:17:39.083Z,713.00
2022-11-30T02:18:09.121Z,712.00
2022-11-30T02:18:39.151Z,713.00
2022-11-30T02:19:09.187Z,715.00
2022-11-30T02:19:39.232Z,715.00
2022-11-30T02:20:09.260Z,715.00
2022-11-30T02:20:39.286Z,714.00
2022-11-30T02:21:09.322Z,715.00
2022-11-30T02:21:39.350Z,714.00
2022-11-30T02:22:09.383Z,715.00
2022-11-30T02:22:39.415Z,714.00
2022-11-30T02:23:09.444Z,715.00
2022-11-30T02:23:41.455Z,717.00
2022-11-30T02:24:09.498Z,715.00
2022-11-30T02:24:39.529Z,714.00
2022-11-30T02:25:09.589Z,714.00
2022-11-30T02:25:39.595Z,712.00
2022-11-30T02:26:09.625Z,710.00
2022-11-30T02:26:39.742Z,711.00
2022-11-30T02:27:09.787Z,710.00
2022-11-30T02:27:39.814Z,709.00
2022-11-30T02:28:09.889Z,710.00
2022-11-30T02:28:39.930Z,710.00
2022-11-30T02:29:09.954Z,710.00
2022-11-30T02:29:39.991Z,709.00
2022-11-30T02:30:10.019Z,708.00
2022-11-30T02:30:40.104Z,709.00
2022-11-30T02:31:10.146Z,710.00
2022-11-30T02:31:40.211Z,711.00
2022-11-30T02:32:10.253Z,710.00
2022-11-30T02:32:40.292Z,711.00
2022-11-30T02:33:10.323Z,711.00
2022-11-30T02:33:40.360Z,711.00
2022-11-30T02:34:10.391Z,709.00
2022-11-30T02:34:40.423Z,708.00
2022-11-30T02:35:10.458Z,707.00
2022-11-30T02:35:40.487Z,707.00
2022-11-30T02:36:10.517Z,705.00
2022-11-30T02:36:40.549Z,703.00
2022-11-30T02:37:10.581Z,704.00
2022-11-30T02:37:40.614Z,702.00
2022-11-30T02:38:10.650Z,701.00
2022-11-30T02:38:40.686Z,700.00
2022-11-30T02:39:10.715Z,704.00
2022-11-30T02:39:40.749Z,704.00
2022-11-30T02:40:10.785Z,705.00
2022-11-30T02:40:40.840Z,705.00
2022-11-30T02:41:10.849Z,706.00
2022-11-30T02:41:40.881Z,707.00
2022-11-30T02:42:10.914Z,706.00
2022-11-30T02:42:40.946Z,706.00
2022-11-30T02:43:10.981Z,706.00
2022-11-30T02:43:41.009Z,706.00
2022-11-30T02:44:11.044Z,705.00
2022-11-30T02:44:41.074Z,706.00
2022-11-30T02:45:11.124Z,707.00
2022-11-30T02:45:41.164Z,708.00
2022-11-30T02:46:11.228Z,709.00
2022-11-30T02:46:41.350Z,709.00
2022-11-30T02:47:11.353Z,710.00
2022-11-30T02:47:41.341Z,710.00
2022-11-30T02:48:11.472Z,709.00
2022-11-30T02:48:41.467Z,710.00
2022-11-30T02:49:11.458Z,710.00
2022-11-30T02:49:41.589Z,709.00
2022-11-30T02:50:11.576Z,709.00
2022-11-30T02:50:41.692Z,707.00
2022-11-30T02:51:11.810Z,707.00
2022-11-30T02:51:41.813Z,707.00
2022-11-30T02:52:11.802Z,708.00
2022-11-30T02:52:41.804Z,707.00
2022-11-30T02:53:11.832Z,707.00
2022-11-30T02:53:41.818Z,707.00
2022-11-30T02:54:11.935Z,706.00
2022-11-30T02:54:42.054Z,704.00
2022-11-30T02:55:12.170Z,705.00
2022-11-30T02:55:42.286Z,705.00
2022-11-30T02:56:12.308Z,705.00
2022-11-30T02:56:42.298Z,705.00
2022-11-30T02:57:12.328Z,705.00
2022-11-30T02:57:42.364Z,706.00
2022-11-30T02:58:12.410Z,706.00
2022-11-30T02:58:42.445Z,705.00
2022-11-30T02:59:12.477Z,705.00
2022-11-30T02:59:42.507Z,704.00
2022-11-30T03:00:12.542Z,702.00
2022-11-30T03:00:42.572Z,703.00
2022-11-30T03:01:12.718Z,703.00
2022-11-30T03:01:42.862Z,705.00
2022-11-30T03:02:12.644Z,705.00
2022-11-30T03:02:42.744Z,705.00
2022-11-30T03:03:12.794Z,704.00
2022-11-30T03:03:42.828Z,704.00
2022-11-30T03:04:12.855Z,704.00
2022-11-30T03:04:42.891Z,703.00
2022-11-30T03:05:12.930Z,702.00
2022-11-30T03:05:42.951Z,702.00
2022-11-30T03:06:12.984Z,702.00
2022-11-30T03:06:43.020Z,701.00
2022-11-30T03:07:13.055Z,702.00
2022-11-30T03:07:43.155Z,702.00
2022-11-30T03:08:13.079Z,704.00
2022-11-30T03:08:43.111Z,705.00
2022-11-30T03:09:13.143Z,705.00
2022-11-30T03:09:43.173Z,704.00
2022-11-30T03:10:13.201Z,703.00
2022-11-30T03:10:43.232Z,703.00
2022-11-30T03:11:13.259Z,702.00
2022-11-30T03:11:43.317Z,701.00
2022-11-30T03:12:13.327Z,701.00
2022-11-30T03:12:43.363Z,703.00
2022-11-30T03:13:13.396Z,702.00
2022-11-30T03:13:43.432Z,703.00
2022-11-30T03:14:13.458Z,703.00
2022-11-30T03:14:43.495Z,705.00
2022-11-30T03:15:13.529Z,705.00
2022-11-30T03:15:43.914Z,705.00
2022-11-30T03:16:13.748Z,706.00
2022-11-30T03:16:43.763Z,704.00
2022-11-30T03:17:13.787Z,704.00
2022-11-30T03:17:43.819Z,703.00
2022-11-30T03:18:13.867Z,702.00
2022-11-30T03:18:43.915Z,704.00
2022-11-30T03:19:13.944Z,703.00
2022-11-30T03:19:43.980Z,703.00
2022-11-30T03:20:14.015Z,702.00
2022-11-30T03:20:44.047Z,702.00
2022-11-30T03:21:14.081Z,702.00
2022-11-30T03:21:44.199Z,703.00
2022-11-30T03:22:14.230Z,702.00
2022-11-30T03:22:44.259Z,700.00
2022-11-30T03:23:14.311Z,702.00
2022-11-30T03:23:44.344Z,701.00
2022-11-30T03:24:14.376Z,701.00
2022-11-30T03:24:44.744Z,702.00
2022-11-30T03:25:14.449Z,702.00
2022-11-30T03:25:44.471Z,700.00
2022-11-30T03:26:14.583Z,699.00
2022-11-30T03:26:44.602Z,698.00
2022-11-30T03:27:14.660Z,697.00
2022-11-30T03:27:44.663Z,696.00
2022-11-30T03:28:14.714Z,697.00
2022-11-30T03:28:44.748Z,698.00
2022-11-30T03:29:14.780Z,699.00
2022-11-30T03:29:44.808Z,701.00
2022-11-30T03:30:14.838Z,702.00
2022-11-30T03:30:44.963Z,703.00
2022-11-30T03:31:15.037Z,701.00
2022-11-30T03:31:45.054Z,700.00
2022-11-30T03:32:15.127Z,701.00
2022-11-30T03:32:45.174Z,699.00
2022-11-30T03:33:15.235Z,699.00
2022-11-30T03:33:45.298Z,697.00
2022-11-30T03:34:15.349Z,697.00
2022-11-30T03:34:45.803Z,697.00
2022-11-30T03:35:15.505Z,697.00
2022-11-30T03:35:45.562Z,698.00
2022-11-30T03:36:15.625Z,697.00
2022-11-30T03:36:45.688Z,695.00
2022-11-30T03:37:15.785Z,694.00
2022-11-30T03:37:45.824Z,693.00
2022-11-30T03:38:15.885Z,693.00
2022-11-30T03:38:45.954Z,693.00
2022-11-30T03:39:15.996Z,692.00
2022-11-30T03:39:46.062Z,691.00
2022-11-30T03:40:16.088Z,692.00
2022-11-30T03:40:46.124Z,692.00
2022-11-30T03:41:16.156Z,694.00
2022-11-30T03:41:46.181Z,696.00
2022-11-30T03:42:16.217Z,695.00
2022-11-30T03:42:46.278Z,694.00
2022-11-30T03:43:16.286Z,695.00
2022-11-30T03:43:46.322Z,694.00
2022-11-30T03:44:16.355Z,693.00
2022-11-30T03:44:46.662Z,693.00
2022-11-30T03:45:16.433Z,693.00
2022-11-30T03:45:46.470Z,692.00
2022-11-30T03:46:16.624Z,692.00
2022-11-30T03:46:46.641Z,690.00
2022-11-30T03:47:16.617Z,691.00
2022-11-30T03:47:46.735Z,691.00
2022-11-30T03:48:16.731Z,692.00
2022-11-30T03:48:46.729Z,694.00
2022-11-30T03:49:16.721Z,694.00
2022-11-30T03:49:46.838Z,695.00
2022-11-30T03:50:16.839Z,696.00
2022-11-30T03:50:46.955Z,697.00
2022-11-30T03:51:16.951Z,696.00
2022-11-30T03:51:47.073Z,696.00
2022-11-30T03:52:17.071Z,696.00
2022-11-30T03:52:47.069Z,698.00
2022-11-30T03:53:17.066Z,698.00
2022-11-30T03:53:47.187Z,696.00
2022-11-30T03:54:17.302Z,696.00
2022-11-30T03:54:47.614Z,698.00
2022-11-30T03:55:17.343Z,696.00
2022-11-30T03:55:47.343Z,698.00
2022-11-30T03:56:17.464Z,698.00
2022-11-30T03:56:47.491Z,698.00
2022-11-30T03:57:17.523Z,696.00
2022-11-30T03:57:47.558Z,698.00
2022-11-30T03:58:17.619Z,699.00
2022-11-30T03:58:47.628Z,700.00
2022-11-30T03:59:17.664Z,700.00
2022-11-30T03:59:47.691Z,699.00
2022-11-30T04:00:17.744Z,697.00
2022-11-30T04:00:47.760Z,696.00
2022-11-30T04:01:17.887Z,697.00
2022-11-30T04:01:47.931Z,697.00
2022-11-30T04:02:17.968Z,696.00
2022-11-30T04:02:48.027Z,697.00
2022-11-30T04:03:18.137Z,697.00
2022-11-30T04:03:48.185Z,699.00
2022-11-30T04:04:18.219Z,698.00
2022-11-30T04:04:48.611Z,698.00
2022-11-30T04:05:18.312Z,698.00
2022-11-30T04:05:48.354Z,698.00
2022-11-30T04:06:18.380Z,698.00
2022-11-30T04:06:48.414Z,697.00
2022-11-30T04:07:18.492Z,697.00
2022-11-30T04:07:48.589Z,697.00
2022-11-30T04:08:18.592Z,696.00
2022-11-30T04:08:48.624Z,695.00
2022-11-30T04:09:18.655Z,696.00
2022-11-30T04:09:48.693Z,696.00
2022-11-30T04:10:18.729Z,694.00
2022-11-30T04:10:48.756Z,692.00
2022-11-30T04:11:18.794Z,692.00
2022-11-30T04:11:48.823Z,693.00
2022-11-30T04:12:18.885Z,692.00
2022-11-30T04:12:48.923Z,692.00
2022-11-30T04:13:18.950Z,692.00
2022-11-30T04:13:49.015Z,690.00
2022-11-30T04:14:19.020Z,690.00
2022-11-30T04:14:49.321Z,689.00
2022-11-30T04:15:19.087Z,688.00
2022-11-30T04:15:49.209Z,686.00
2022-11-30T04:16:19.188Z,686.00
2022-11-30T04:16:49.138Z,687.00
2022-11-30T04:17:19.170Z,687.00
2022-11-30T04:17:49.201Z,687.00
2022-11-30T04:18:19.238Z,687.00
2022-11-30T04:18:49.275Z,690.00
2022-11-30T04:19:19.308Z,690.00
2022-11-30T04:19:49.353Z,691.00
2022-11-30T04:20:19.384Z,692.00
2022-11-30T04:20:49.419Z,691.00
2022-11-30T04:21:19.447Z,691.00
2022-11-30T04:21:49.480Z,691.00
2022-11-30T04:22:19.517Z,690.00
2022-11-30T04:22:49.545Z,689.00
2022-11-30T04:23:19.584Z,689.00
2022-11-30T04:23:49.619Z,687.00
2022-11-30T04:24:19.649Z,686.00
2022-11-30T04:24:49.899Z,686.00
2022-11-30T04:25:19.788Z,687.00
2022-11-30T04:25:49.815Z,687.00
2022-11-30T04:26:19.866Z,688.00
2022-11-30T04:26:49.892Z,690.00
2022-11-30T04:27:19.920Z,689.00
2022-11-30T04:27:49.950Z,688.00
2022-11-30T04:28:19.976Z,688.00
2022-11-30T04:28:50.008Z,689.00
2022-11-30T04:29:20.058Z,688.00
2022-11-30T04:29:50.068Z,688.00
2022-11-30T04:30:20.136Z,687.00
2022-11-30T04:30:50.168Z,687.00
2022-11-30T04:31:20.250Z,685.00
2022-11-30T04:31:50.275Z,684.00
2022-11-30T04:32:20.308Z,683.00
2022-11-30T04:32:50.339Z,684.00
2022-11-30T04:33:20.378Z,684.00
2022-11-30T04:33:50.408Z,682.00
2022-11-30T04:34:20.450Z,681.00
2022-11-30T04:34:50.478Z,681.00
2022-11-30T04:35:20.507Z,682.00
2022-11-30T04:35:50.540Z,682.00
2022-11-30T04:36:20.571Z,683.00
2022-11-30T04:36:50.606Z,684.00
2022-11-30T04:37:20.636Z,682.00
2022-11-30T04:37:50.663Z,684.00
2022-11-30T04:38:20.698Z,685.00
2022-11-30T04:38:50.727Z,686.00
2022-11-30T04:39:20.757Z,686.00
2022-11-30T04:39:50.794Z,688.00
2022-11-30T04:40:20.821Z,689.00
2022-11-30T04:40:50.861Z,688.00
2022-11-30T04:41:20.891Z,687.00
2022-11-30T04:41:50.917Z,688.00
2022-11-30T04:42:20.955Z,688.00
2022-11-30T04:42:50.987Z,687.00
2022-11-30T04:43:21.019Z,686.00
2022-11-30T04:43:51.050Z,686.00
2022-11-30T04:44:21.084Z,685.00
2022-11-30T04:44:51.139Z,684.00
2022-11-30T04:45:21.146Z,684.00
2022-11-30T04:45:51.169Z,684.00
2022-11-30T04:46:21.271Z,684.00
2022-11-30T04:46:51.334Z,684.00
2022-11-30T04:47:21.306Z,684.00
2022-11-30T04:47:51.293Z,684.00
2022-11-30T04:48:21.440Z,684.00
2022-11-30T04:48:51.424Z,684.00
2022-11-30T04:49:21.549Z,685.00
2022-11-30T04:49:51.543Z,686.00
2022-11-30T04:50:21.661Z,685.00
2022-11-30T04:50:51.657Z,685.00
2022-11-30T04:51:21.785Z,686.00
2022-11-30T04:51:51.779Z,688.00
2022-11-30T04:52:21.784Z,688.00
2022-11-30T04:52:51.903Z,687.00
2022-11-30T04:53:22.022Z,686.00
2022-11-30T04:53:52.019Z,684.00
2022-11-30T04:54:22.143Z,685.00
2022-11-30T04:54:52.140Z,685.00
2022-11-30T04:55:22.259Z,687.00
2022-11-30T04:55:52.368Z,688.00
2022-11-30T04:56:22.372Z,687.00
2022-11-30T04:56:52.402Z,687.00
2022-11-30T04:57:22.444Z,687.00
2022-11-30T04:57:52.475Z,687.00
2022-11-30T04:58:22.518Z,690.00
2022-11-30T04:58:52.542Z,690.00
2022-11-30T04:59:22.577Z,689.00
2022-11-30T04:59:52.625Z,689.00
2022-11-30T05:00:22.641Z,689.00
2022-11-30T05:00:52.673Z,689.00
2022-11-30T05:01:22.807Z,690.00
2022-11-30T05:01:52.786Z,689.00
2022-11-30T05:02:22.813Z,689.00
2022-11-30T05:02:53.427Z,690.00
2022-11-30T05:03:22.856Z,690.00
2022-11-30T05:03:52.884Z,689.00
2022-11-30T05:04:22.979Z,687.00
2022-11-30T05:04:53.032Z,690.00
2022-11-30T05:05:23.038Z,691.00
2022-11-30T05:05:53.070Z,692.00
2022-11-30T05:06:23.125Z,691.00
2022-11-30T05:06:53.153Z,692.00
2022-11-30T05:07:23.237Z,695.00
2022-11-30T05:07:53.255Z,695.00
2022-11-30T05:08:23.268Z,694.00
2022-11-30T05:08:53.305Z,694.00
2022-11-30T05:09:23.349Z,696.00
2022-11-30T05:09:53.376Z,695.00
2022-11-30T05:10:23.408Z,695.00
2022-11-30T05:10:53.586Z,694.00
2022-11-30T05:11:23.495Z,694.00
2022-11-30T05:11:53.522Z,693.00
2022-11-30T05:12:23.556Z,691.00
2022-11-30T05:12:53.589Z,692.00
2022-11-30T05:13:23.621Z,691.00
2022-11-30T05:13:53.658Z,690.00
2022-11-30T05:14:23.693Z,690.00
2022-11-30T05:14:53.734Z,690.00
2022-11-30T05:15:23.802Z,687.00
2022-11-30T05:15:54.093Z,686.00
2022-11-30T05:16:23.891Z,686.00
2022-11-30T05:16:53.858Z,686.00
2022-11-30T05:17:23.887Z,685.00
2022-11-30T05:17:53.914Z,685.00
2022-11-30T05:18:23.950Z,686.00
2022-11-30T05:18:53.979Z,686.00
2022-11-30T05:19:24.010Z,687.00
2022-11-30T05:19:54.049Z,687.00
2022-11-30T05:20:24.078Z,688.00
2022-11-30T05:20:54.113Z,689.00
2022-11-30T05:21:24.149Z,689.00
2022-11-30T05:21:54.187Z,690.00
2022-11-30T05:22:24.212Z,692.00
2022-11-30T05:22:54.239Z,692.00
2022-11-30T05:23:24.278Z,692.00
2022-11-30T05:23:54.319Z,692.00
2022-11-30T05:24:24.345Z,692.00
2022-11-30T05:24:54.374Z,693.00
2022-11-30T05:25:24.418Z,694.00
2022-11-30T05:25:54.442Z,694.00
2022-11-30T05:26:24.479Z,695.00
2022-11-30T05:26:54.512Z,695.00
2022-11-30T05:27:24.541Z,695.00
2022-11-30T05:27:54.576Z,697.00
2022-11-30T05:28:24.605Z,698.00
2022-11-30T05:28:54.642Z,699.00
2022-11-30T05:29:24.676Z,701.00
2022-11-30T05:29:54.706Z,703.00
2022-11-30T05:30:24.742Z,704.00
2022-11-30T05:30:54.795Z,705.00
2022-11-30T05:31:24.829Z,706.00
2022-11-30T05:31:54.845Z,708.00
2022-11-30T05:32:24.883Z,709.00
2022-11-30T05:32:54.907Z,709.00
2022-11-30T05:33:24.948Z,711.00
2022-11-30T05:33:54.978Z,710.00
2022-11-30T05:34:25.011Z,710.00
2022-11-30T05:34:55.404Z,710.00
2022-11-30T05:35:25.155Z,712.00
2022-11-30T05:35:55.162Z,713.00
2022-11-30T05:36:25.355Z,715.00
2022-11-30T05:36:55.228Z,716.00
2022-11-30T05:37:25.267Z,717.00
2022-11-30T05:37:55.305Z,718.00
2022-11-30T05:38:25.327Z,721.00
2022-11-30T05:38:55.362Z,721.00
2022-11-30T05:39:25.400Z,719.00
2022-11-30T05:39:55.432Z,718.00
2022-11-30T05:40:25.472Z,718.00
2022-11-30T05:40:55.498Z,721.00
2022-11-30T05:41:25.542Z,722.00
2022-11-30T05:41:55.573Z,724.00
2022-11-30T05:42:25.601Z,723.00
2022-11-30T05:42:55.639Z,722.00
2022-11-30T05:43:25.673Z,722.00
2022-11-30T05:43:55.704Z,723.00
2022-11-30T05:44:25.745Z,723.00
2022-11-30T05:44:55.764Z,724.00
2022-11-30T05:45:25.808Z,725.00
2022-11-30T05:45:55.841Z,723.00
2022-11-30T05:46:25.926Z,722.00
2022-11-30T05:46:55.960Z,723.00
2022-11-30T05:47:25.965Z,724.00
2022-11-30T05:47:55.976Z,724.00
2022-11-30T05:48:25.992Z,723.00
2022-11-30T05:48:56.003Z,723.00
2022-11-30T05:49:26.023Z,724.00
2022-11-30T05:49:56.044Z,724.00
2022-11-30T05:50:26.044Z,725.00
2022-11-30T05:50:56.044Z,726.00
2022-11-30T05:51:26.177Z,724.00
2022-11-30T05:51:56.169Z,726.00
2022-11-30T05:52:26.306Z,728.00
2022-11-30T05:52:56.528Z,728.00
2022-11-30T05:53:26.402Z,728.00
2022-11-30T05:53:56.403Z,730.00
2022-11-30T05:54:26.520Z,730.00
2022-11-30T05:54:56.519Z,731.00
2022-11-30T05:55:26.519Z,732.00
2022-11-30T05:55:56.513Z,733.00
2022-11-30T05:56:26.550Z,733.00
2022-11-30T05:56:56.583Z,733.00
2022-11-30T05:57:26.614Z,732.00
2022-11-30T05:57:56.652Z,731.00
2022-11-30T05:58:26.696Z,733.00
2022-11-30T05:58:56.734Z,733.00
2022-11-30T05:59:26.771Z,734.00
2022-11-30T05:59:56.798Z,734.00
2022-11-30T06:00:26.837Z,735.00
2022-11-30T06:00:56.866Z,735.00
2022-11-30T06:01:26.918Z,734.00
2022-11-30T06:01:57.087Z,734.00
2022-11-30T06:02:28.517Z,733.00
2022-11-30T06:02:57.404Z,732.00
2022-11-30T06:03:27.284Z,732.00
2022-11-30T06:03:57.308Z,733.00
2022-11-30T06:04:27.346Z,734.00
2022-11-30T06:04:57.376Z,735.00
2022-11-30T06:05:27.414Z,736.00
2022-11-30T06:05:57.435Z,734.00
2022-11-30T06:06:27.483Z,734.00
2022-11-30T06:06:57.515Z,734.00
2022-11-30T06:07:27.605Z,735.00
2022-11-30T06:07:57.650Z,736.00
2022-11-30T06:08:27.711Z,736.00
2022-11-30T06:08:57.885Z,736.00
2022-11-30T06:09:27.771Z,736.00
2022-11-30T06:09:57.803Z,736.00
2022-11-30T06:10:27.838Z,738.00
2022-11-30T06:10:57.872Z,740.00
2022-11-30T06:11:27.905Z,740.00
2022-11-30T06:11:57.945Z,742.00
2022-11-30T06:12:27.980Z,745.00
2022-11-30T06:12:58.043Z,743.00
2022-11-30T06:13:29.047Z,743.00
2022-11-30T06:13:58.155Z,743.00
2022-11-30T06:14:28.203Z,743.00
2022-11-30T06:14:58.237Z,745.00